sensor_id;sensor_type;location;lat;lon;timestamp;temperature;humidity
20432;DHT22;10375;49.136;10.366;2023-03-01T00:01:04;-1.70;99.90
20432;DHT22;10375;49.136;10.366;2023-03-01T00:03:32;-1.60;99.90
20432;DHT22;10375;49.136;10.366;2023-03-01T00:05:59;-1.60;99.90
20432;DHT22;10375;49.136;10.366;2023-03-01T00:08:27;-1.60;99.90
20432;DHT22;10375;49.136;10.366;2023-03-01T00:13:28;-1.60;99.90
20432;DHT22;10375;49.136;10.366;2023-03-01T00:15:55;-1.60;99.90
20432;DHT22;10375;49.136;10.366;2023-03-01T00:18:22;-1.60;99.90
20432;DHT22;10375;49.136;10.366;2023-03-01T00:20:54;-1.70;99.90
20432;DHT22;10375;49.136;10.366;2023-03-01T00:23:22;-1.60;99.90
20432;DHT22;10375;49.136;10.366;2023-03-01T00:25:49;-1.60;99.90
20432;DHT22;10375;49.136;10.366;2023-03-01T00:28:16;-1.70;99.90
20432;DHT22;10375;49.136;10.366;2023-03-01T00:30:44;-1.80;99.90
20432;DHT22;10375;49.136;10.366;2023-03-01T00:33:11;-1.80;99.90
20432;DHT22;10375;49.136;10.366;2023-03-01T00:35:38;-1.80;99.90
20432;DHT22;10375;49.136;10.366;2023-03-01T00:38:05;-1.80;99.90
20432;DHT22;10375;49.136;10.366;2023-03-01T00:40:34;-1.80;99.90
20432;DHT22;10375;49.136;10.366;2023-03-01T00:43:02;-1.80;99.90
20432;DHT22;10375;49.136;10.366;2023-03-01T00:45:30;-1.80;99.90
20432;DHT22;10375;49.136;10.366;2023-03-01T00:47:58;-1.80;99.90
20432;DHT22;10375;49.136;10.366;2023-03-01T00:50:25;-1.80;99.90
20432;DHT22;10375;49.136;10.366;2023-03-01T00:52:53;-1.70;99.90
20432;DHT22;10375;49.136;10.366;2023-03-01T00:55:21;-1.70;99.90
20432;DHT22;10375;49.136;10.366;2023-03-01T00:57:48;-1.60;99.90
20432;DHT22;10375;49.136;10.366;2023-03-01T01:00:16;-1.60;99.90
20432;DHT22;10375;49.136;10.366;2023-03-01T01:02:43;-1.60;99.90
20432;DHT22;10375;49.136;10.366;2023-03-01T01:05:11;-1.50;99.90
20432;DHT22;10375;49.136;10.366;2023-03-01T01:07:38;-1.50;99.90
20432;DHT22;10375;49.136;10.366;2023-03-01T01:10:06;-1.40;99.90
20432;DHT22;10375;49.136;10.366;2023-03-01T01:12:33;-1.40;99.90
20432;DHT22;10375;49.136;10.366;2023-03-01T01:15:00;-1.30;99.90
20432;DHT22;10375;49.136;10.366;2023-03-01T01:17:27;-1.30;99.90
20432;DHT22;10375;49.136;10.366;2023-03-01T01:19:54;-1.30;99.90
20432;DHT22;10375;49.136;10.366;2023-03-01T01:22:21;-1.30;99.90
20432;DHT22;10375;49.136;10.366;2023-03-01T01:24:48;-1.30;99.90
20432;DHT22;10375;49.136;10.366;2023-03-01T01:27:15;-1.30;99.90
20432;DHT22;10375;49.136;10.366;2023-03-01T01:29:42;-1.30;99.90
20432;DHT22;10375;49.136;10.366;2023-03-01T01:32:09;-1.20;99.90
20432;DHT22;10375;49.136;10.366;2023-03-01T01:34:36;-1.30;99.90
20432;DHT22;10375;49.136;10.366;2023-03-01T01:37:03;-1.20;99.90
20432;DHT22;10375;49.136;10.366;2023-03-01T01:39:35;-1.20;99.90
20432;DHT22;10375;49.136;10.366;2023-03-01T01:42:02;-1.30;99.90
20432;DHT22;10375;49.136;10.366;2023-03-01T01:44:29;-1.30;99.90
20432;DHT22;10375;49.136;10.366;2023-03-01T01:49:40;-1.20;99.90
20432;DHT22;10375;49.136;10.366;2023-03-01T01:52:19;-1.20;99.90
20432;DHT22;10375;49.136;10.366;2023-03-01T01:54:49;-1.20;99.90
20432;DHT22;10375;49.136;10.366;2023-03-01T01:57:24;-1.20;99.90
20432;DHT22;10375;49.136;10.366;2023-03-01T01:59:54;-1.20;99.90
20432;DHT22;10375;49.136;10.366;2023-03-01T02:02:23;-1.20;99.90
20432;DHT22;10375;49.136;10.366;2023-03-01T02:04:55;-1.20;99.90
20432;DHT22;10375;49.136;10.366;2023-03-01T02:07:27;-1.20;99.90
20432;DHT22;10375;49.136;10.366;2023-03-01T02:09:54;-1.20;99.90
20432;DHT22;10375;49.136;10.366;2023-03-01T02:12:24;-1.20;99.90
20432;DHT22;10375;49.136;10.366;2023-03-01T02:14:52;-1.20;99.90
20432;DHT22;10375;49.136;10.366;2023-03-01T02:17:19;-1.20;99.90
20432;DHT22;10375;49.136;10.366;2023-03-01T02:20:22;-1.20;99.90
20432;DHT22;10375;49.136;10.366;2023-03-01T02:22:50;-1.20;99.90
20432;DHT22;10375;49.136;10.366;2023-03-01T02:30:51;-1.30;99.90
20432;DHT22;10375;49.136;10.366;2023-03-01T02:33:39;-1.30;99.90
20432;DHT22;10375;49.136;10.366;2023-03-01T02:36:10;-1.30;99.90
20432;DHT22;10375;49.136;10.366;2023-03-01T02:38:41;-1.40;99.90
20432;DHT22;10375;49.136;10.366;2023-03-01T02:41:09;-1.40;99.90
20432;DHT22;10375;49.136;10.366;2023-03-01T02:43:38;-1.40;99.90
20432;DHT22;10375;49.136;10.366;2023-03-01T02:46:08;-1.50;99.90
20432;DHT22;10375;49.136;10.366;2023-03-01T02:48:44;-1.50;99.90
20432;DHT22;10375;49.136;10.366;2023-03-01T02:54:04;-1.50;99.90
20432;DHT22;10375;49.136;10.366;2023-03-01T02:56:34;-1.50;99.90
20432;DHT22;10375;49.136;10.366;2023-03-01T02:59:01;-1.50;99.90
20432;DHT22;10375;49.136;10.366;2023-03-01T03:01:29;-1.50;99.90
20432;DHT22;10375;49.136;10.366;2023-03-01T03:04:11;-1.50;99.90
20432;DHT22;10375;49.136;10.366;2023-03-01T03:06:38;-1.50;99.90
20432;DHT22;10375;49.136;10.366;2023-03-01T03:09:05;-1.50;99.90
20432;DHT22;10375;49.136;10.366;2023-03-01T03:11:32;-1.50;99.90
20432;DHT22;10375;49.136;10.366;2023-03-01T03:13:59;-1.50;99.90
20432;DHT22;10375;49.136;10.366;2023-03-01T03:16:26;-1.60;99.90
20432;DHT22;10375;49.136;10.366;2023-03-01T03:18:53;-1.60;99.90
20432;DHT22;10375;49.136;10.366;2023-03-01T03:21:20;-1.60;99.90
20432;DHT22;10375;49.136;10.366;2023-03-01T03:23:47;-1.60;99.90
20432;DHT22;10375;49.136;10.366;2023-03-01T03:26:14;-1.70;99.90
20432;DHT22;10375;49.136;10.366;2023-03-01T03:28:41;-1.70;99.90
20432;DHT22;10375;49.136;10.366;2023-03-01T03:31:08;-1.70;99.90
20432;DHT22;10375;49.136;10.366;2023-03-01T03:33:35;-1.80;99.90
20432;DHT22;10375;49.136;10.366;2023-03-01T03:36:03;-1.90;99.90
20432;DHT22;10375;49.136;10.366;2023-03-01T03:38:30;-1.90;99.90
20432;DHT22;10375;49.136;10.366;2023-03-01T03:41:06;-1.90;99.90
20432;DHT22;10375;49.136;10.366;2023-03-01T03:43:36;-2.00;99.90
20432;DHT22;10375;49.136;10.366;2023-03-01T03:46:04;-2.00;99.90
20432;DHT22;10375;49.136;10.366;2023-03-01T03:48:44;-2.10;99.90
20432;DHT22;10375;49.136;10.366;2023-03-01T03:51:13;-2.20;99.90
20432;DHT22;10375;49.136;10.366;2023-03-01T03:53:41;-2.20;99.90
20432;DHT22;10375;49.136;10.366;2023-03-01T03:56:08;-2.30;99.90
20432;DHT22;10375;49.136;10.366;2023-03-01T03:58:35;-2.30;99.90
20432;DHT22;10375;49.136;10.366;2023-03-01T04:01:03;-2.40;99.90
20432;DHT22;10375;49.136;10.366;2023-03-01T04:03:31;-2.40;99.90
20432;DHT22;10375;49.136;10.366;2023-03-01T04:05:59;-2.40;99.90
20432;DHT22;10375;49.136;10.366;2023-03-01T04:08:27;-2.40;99.90
20432;DHT22;10375;49.136;10.366;2023-03-01T04:11:03;-2.40;99.90
20432;DHT22;10375;49.136;10.366;2023-03-01T04:13:51;-2.40;99.90
20432;DHT22;10375;49.136;10.366;2023-03-01T04:16:19;-2.50;99.90
20432;DHT22;10375;49.136;10.366;2023-03-01T04:18:46;-2.50;99.90
20432;DHT22;10375;49.136;10.366;2023-03-01T04:21:13;-2.40;99.90
20432;DHT22;10375;49.136;10.366;2023-03-01T04:23:40;-2.40;99.90
20432;DHT22;10375;49.136;10.366;2023-03-01T04:26:09;-2.50;99.90
20432;DHT22;10375;49.136;10.366;2023-03-01T04:28:38;-2.50;99.90
20432;DHT22;10375;49.136;10.366;2023-03-01T04:31:10;-2.50;99.90
20432;DHT22;10375;49.136;10.366;2023-03-01T04:33:45;-2.50;99.90
20432;DHT22;10375;49.136;10.366;2023-03-01T04:36:13;-2.60;99.90
20432;DHT22;10375;49.136;10.366;2023-03-01T04:38:41;-2.60;99.90
20432;DHT22;10375;49.136;10.366;2023-03-01T04:41:10;-2.60;99.90
20432;DHT22;10375;49.136;10.366;2023-03-01T04:43:38;-2.60;99.90
20432;DHT22;10375;49.136;10.366;2023-03-01T04:46:07;-2.70;99.90
20432;DHT22;10375;49.136;10.366;2023-03-01T04:48:37;-2.60;99.90
20432;DHT22;10375;49.136;10.366;2023-03-01T04:51:05;-2.60;99.90
20432;DHT22;10375;49.136;10.366;2023-03-01T04:53:32;-2.70;99.90
20432;DHT22;10375;49.136;10.366;2023-03-01T04:55:59;-2.70;99.90
20432;DHT22;10375;49.136;10.366;2023-03-01T04:58:27;-2.60;99.90
20432;DHT22;10375;49.136;10.366;2023-03-01T05:00:55;-2.70;99.90
20432;DHT22;10375;49.136;10.366;2023-03-01T05:03:22;-2.80;99.90
20432;DHT22;10375;49.136;10.366;2023-03-01T05:05:51;-2.80;99.90
20432;DHT22;10375;49.136;10.366;2023-03-01T05:08:19;-2.70;99.90
20432;DHT22;10375;49.136;10.366;2023-03-01T05:10:52;-2.80;99.90
20432;DHT22;10375;49.136;10.366;2023-03-01T05:13:21;-2.80;99.90
20432;DHT22;10375;49.136;10.366;2023-03-01T05:15:58;-2.80;99.90
20432;DHT22;10375;49.136;10.366;2023-03-01T05:18:27;-2.80;99.90
20432;DHT22;10375;49.136;10.366;2023-03-01T05:20:56;-2.80;99.90
20432;DHT22;10375;49.136;10.366;2023-03-01T05:23:27;-2.80;99.90
20432;DHT22;10375;49.136;10.366;2023-03-01T05:25:58;-2.80;99.90
20432;DHT22;10375;49.136;10.366;2023-03-01T05:28:27;-2.90;99.90
20432;DHT22;10375;49.136;10.366;2023-03-01T05:30:55;-2.90;99.90
20432;DHT22;10375;49.136;10.366;2023-03-01T05:33:23;-2.80;99.90
20432;DHT22;10375;49.136;10.366;2023-03-01T05:35:51;-2.90;99.90
20432;DHT22;10375;49.136;10.366;2023-03-01T05:38:21;-2.90;99.90
20432;DHT22;10375;49.136;10.366;2023-03-01T05:40:49;-2.90;99.90
20432;DHT22;10375;49.136;10.366;2023-03-01T05:43:17;-2.90;99.90
20432;DHT22;10375;49.136;10.366;2023-03-01T05:45:44;-2.90;99.90
20432;DHT22;10375;49.136;10.366;2023-03-01T05:48:12;-2.90;99.90
20432;DHT22;10375;49.136;10.366;2023-03-01T05:50:42;-2.90;99.90
20432;DHT22;10375;49.136;10.366;2023-03-01T05:55:38;-3.00;99.90
20432;DHT22;10375;49.136;10.366;2023-03-01T05:58:08;-3.00;99.90
20432;DHT22;10375;49.136;10.366;2023-03-01T06:00:36;-3.00;99.90
20432;DHT22;10375;49.136;10.366;2023-03-01T06:03:03;-3.00;99.90
20432;DHT22;10375;49.136;10.366;2023-03-01T06:05:30;-3.10;99.90
20432;DHT22;10375;49.136;10.366;2023-03-01T06:08:02;-3.10;99.90
20432;DHT22;10375;49.136;10.366;2023-03-01T06:10:29;-3.20;99.90
20432;DHT22;10375;49.136;10.366;2023-03-01T06:12:56;-3.10;99.90
20432;DHT22;10375;49.136;10.366;2023-03-01T06:15:24;-3.10;99.90
20432;DHT22;10375;49.136;10.366;2023-03-01T06:17:53;-3.00;99.90
20432;DHT22;10375;49.136;10.366;2023-03-01T06:20:25;-3.00;99.90
20432;DHT22;10375;49.136;10.366;2023-03-01T06:22:52;-2.90;99.90
20432;DHT22;10375;49.136;10.366;2023-03-01T06:25:22;-2.80;99.90
20432;DHT22;10375;49.136;10.366;2023-03-01T06:27:49;-2.80;99.90
20432;DHT22;10375;49.136;10.366;2023-03-01T06:30:18;-2.70;99.90
20432;DHT22;10375;49.136;10.366;2023-03-01T06:32:46;-2.70;99.90
20432;DHT22;10375;49.136;10.366;2023-03-01T06:35:15;-2.60;99.90
20432;DHT22;10375;49.136;10.366;2023-03-01T06:37:46;-2.60;99.90
20432;DHT22;10375;49.136;10.366;2023-03-01T06:40:14;-2.50;99.90
20432;DHT22;10375;49.136;10.366;2023-03-01T06:42:47;-2.40;99.90
20432;DHT22;10375;49.136;10.366;2023-03-01T06:45:15;-2.30;99.90
20432;DHT22;10375;49.136;10.366;2023-03-01T06:47:42;-2.20;99.90
20432;DHT22;10375;49.136;10.366;2023-03-01T06:50:10;-2.20;99.90
20432;DHT22;10375;49.136;10.366;2023-03-01T06:52:37;-2.10;99.90
20432;DHT22;10375;49.136;10.366;2023-03-01T06:55:05;-2.00;99.90
20432;DHT22;10375;49.136;10.366;2023-03-01T06:57:33;-1.90;99.90
20432;DHT22;10375;49.136;10.366;2023-03-01T07:00:00;-1.90;99.90
20432;DHT22;10375;49.136;10.366;2023-03-01T07:02:27;-1.80;99.90
20432;DHT22;10375;49.136;10.366;2023-03-01T07:04:54;-1.70;99.90
20432;DHT22;10375;49.136;10.366;2023-03-01T07:07:21;-1.60;99.90
20432;DHT22;10375;49.136;10.366;2023-03-01T07:09:48;-1.20;99.90
20432;DHT22;10375;49.136;10.366;2023-03-01T07:12:16;-0.40;99.90
20432;DHT22;10375;49.136;10.366;2023-03-01T07:14:43;1.30;99.90
20432;DHT22;10375;49.136;10.366;2023-03-01T07:17:10;2.60;99.90
20432;DHT22;10375;49.136;10.366;2023-03-01T07:19:37;3.50;99.90
20432;DHT22;10375;49.136;10.366;2023-03-01T07:22:05;4.30;99.90
20432;DHT22;10375;49.136;10.366;2023-03-01T07:24:34;4.30;99.90
20432;DHT22;10375;49.136;10.366;2023-03-01T07:27:02;3.30;99.90
20432;DHT22;10375;49.136;10.366;2023-03-01T07:29:29;2.80;99.90
20432;DHT22;10375;49.136;10.366;2023-03-01T07:31:56;2.60;99.90
20432;DHT22;10375;49.136;10.366;2023-03-01T07:34:24;2.50;99.90
20432;DHT22;10375;49.136;10.366;2023-03-01T07:36:51;2.30;99.90
20432;DHT22;10375;49.136;10.366;2023-03-01T07:39:19;2.60;99.90
20432;DHT22;10375;49.136;10.366;2023-03-01T07:41:46;2.20;99.90
20432;DHT22;10375;49.136;10.366;2023-03-01T07:44:13;1.90;99.90
20432;DHT22;10375;49.136;10.366;2023-03-01T07:46:40;1.80;99.90
20432;DHT22;10375;49.136;10.366;2023-03-01T07:49:07;2.10;99.90
20432;DHT22;10375;49.136;10.366;2023-03-01T07:51:34;2.40;99.90
20432;DHT22;10375;49.136;10.366;2023-03-01T07:54:01;3.00;99.90
20432;DHT22;10375;49.136;10.366;2023-03-01T07:56:28;3.60;99.90
20432;DHT22;10375;49.136;10.366;2023-03-01T07:58:56;4.10;99.90
20432;DHT22;10375;49.136;10.366;2023-03-01T08:01:23;4.30;99.90
20432;DHT22;10375;49.136;10.366;2023-03-01T08:03:50;4.30;99.90
20432;DHT22;10375;49.136;10.366;2023-03-01T08:06:17;5.00;99.90
20432;DHT22;10375;49.136;10.366;2023-03-01T08:08:44;4.90;99.90
20432;DHT22;10375;49.136;10.366;2023-03-01T08:11:13;4.90;99.90
20432;DHT22;10375;49.136;10.366;2023-03-01T08:13:42;5.20;99.90
20432;DHT22;10375;49.136;10.366;2023-03-01T08:16:14;5.20;99.90
20432;DHT22;10375;49.136;10.366;2023-03-01T08:18:42;4.30;99.90
20432;DHT22;10375;49.136;10.366;2023-03-01T08:21:14;3.10;99.90
20432;DHT22;10375;49.136;10.366;2023-03-01T08:23:42;2.70;99.90
20432;DHT22;10375;49.136;10.366;2023-03-01T08:26:15;2.40;99.90
20432;DHT22;10375;49.136;10.366;2023-03-01T08:28:43;2.30;99.90
20432;DHT22;10375;49.136;10.366;2023-03-01T08:31:32;2.20;99.90
20432;DHT22;10375;49.136;10.366;2023-03-01T08:34:01;2.30;99.90
20432;DHT22;10375;49.136;10.366;2023-03-01T08:36:32;2.30;99.90
20432;DHT22;10375;49.136;10.366;2023-03-01T08:39:00;2.40;99.90
20432;DHT22;10375;49.136;10.366;2023-03-01T08:41:28;2.30;99.90
20432;DHT22;10375;49.136;10.366;2023-03-01T08:43:55;2.20;99.90
20432;DHT22;10375;49.136;10.366;2023-03-01T08:46:29;2.40;99.90
20432;DHT22;10375;49.136;10.366;2023-03-01T08:48:57;2.50;99.90
20432;DHT22;10375;49.136;10.366;2023-03-01T08:51:25;2.80;99.90
20432;DHT22;10375;49.136;10.366;2023-03-01T08:53:52;2.80;99.90
20432;DHT22;10375;49.136;10.366;2023-03-01T08:56:19;2.80;99.90
20432;DHT22;10375;49.136;10.366;2023-03-01T08:58:47;2.70;99.90
20432;DHT22;10375;49.136;10.366;2023-03-01T09:01:17;2.80;99.90
20432;DHT22;10375;49.136;10.366;2023-03-01T09:03:45;3.10;99.90
20432;DHT22;10375;49.136;10.366;2023-03-01T09:06:13;3.40;99.90
20432;DHT22;10375;49.136;10.366;2023-03-01T09:08:43;3.60;99.90
20432;DHT22;10375;49.136;10.366;2023-03-01T09:11:13;3.80;99.90
20432;DHT22;10375;49.136;10.366;2023-03-01T09:13:40;3.70;99.90
20432;DHT22;10375;49.136;10.366;2023-03-01T09:16:11;3.90;99.90
20432;DHT22;10375;49.136;10.366;2023-03-01T09:18:38;4.00;99.90
20432;DHT22;10375;49.136;10.366;2023-03-01T09:21:11;4.30;99.90
20432;DHT22;10375;49.136;10.366;2023-03-01T09:23:41;4.40;99.90
20432;DHT22;10375;49.136;10.366;2023-03-01T09:26:10;4.60;99.90
20432;DHT22;10375;49.136;10.366;2023-03-01T09:28:38;4.30;99.90
20432;DHT22;10375;49.136;10.366;2023-03-01T09:31:05;4.30;99.90
20432;DHT22;10375;49.136;10.366;2023-03-01T09:33:33;4.50;99.90
20432;DHT22;10375;49.136;10.366;2023-03-01T09:36:05;4.50;99.90
20432;DHT22;10375;49.136;10.366;2023-03-01T09:38:34;4.10;99.90
20432;DHT22;10375;49.136;10.366;2023-03-01T09:41:01;3.80;99.90
20432;DHT22;10375;49.136;10.366;2023-03-01T09:46:10;3.90;99.90
20432;DHT22;10375;49.136;10.366;2023-03-01T09:48:49;4.00;99.90
20432;DHT22;10375;49.136;10.366;2023-03-01T09:51:33;4.00;99.90
20432;DHT22;10375;49.136;10.366;2023-03-01T09:54:02;4.60;99.90
20432;DHT22;10375;49.136;10.366;2023-03-01T09:56:36;5.00;99.90
20432;DHT22;10375;49.136;10.366;2023-03-01T10:02:41;5.10;99.90
20432;DHT22;10375;49.136;10.366;2023-03-01T10:04:47;5.30;99.90
20432;DHT22;10375;49.136;10.366;2023-03-01T10:07:21;5.50;99.90
20432;DHT22;10375;49.136;10.366;2023-03-01T10:09:51;5.20;99.90
20432;DHT22;10375;49.136;10.366;2023-03-01T10:12:22;5.20;99.90
20432;DHT22;10375;49.136;10.366;2023-03-01T10:20:22;5.70;99.90
20432;DHT22;10375;49.136;10.366;2023-03-01T10:22:50;5.60;99.90
20432;DHT22;10375;49.136;10.366;2023-03-01T10:28:24;5.90;99.90
20432;DHT22;10375;49.136;10.366;2023-03-01T10:30:52;5.80;99.90
20432;DHT22;10375;49.136;10.366;2023-03-01T10:33:30;5.60;99.90
20432;DHT22;10375;49.136;10.366;2023-03-01T10:35:58;5.60;99.90
20432;DHT22;10375;49.136;10.366;2023-03-01T10:38:25;5.40;99.90
20432;DHT22;10375;49.136;10.366;2023-03-01T10:41:06;5.40;99.90
20432;DHT22;10375;49.136;10.366;2023-03-01T10:43:49;5.70;99.90
20432;DHT22;10375;49.136;10.366;2023-03-01T10:49:22;6.10;99.90
20432;DHT22;10375;49.136;10.366;2023-03-01T10:51:51;5.90;99.90
20432;DHT22;10375;49.136;10.366;2023-03-01T10:54:27;6.20;99.90
20432;DHT22;10375;49.136;10.366;2023-03-01T10:57:00;6.50;99.90
20432;DHT22;10375;49.136;10.366;2023-03-01T10:59:31;6.30;99.90
20432;DHT22;10375;49.136;10.366;2023-03-01T11:02:17;6.50;99.90
20432;DHT22;10375;49.136;10.366;2023-03-01T11:05:02;6.60;99.90
20432;DHT22;10375;49.136;10.366;2023-03-01T11:07:48;6.60;99.90
20432;DHT22;10375;49.136;10.366;2023-03-01T11:10:22;6.50;99.90
20432;DHT22;10375;49.136;10.366;2023-03-01T11:12:51;6.20;99.90
20432;DHT22;10375;49.136;10.366;2023-03-01T11:15:27;6.40;99.90
20432;DHT22;10375;49.136;10.366;2023-03-01T11:17:56;6.50;99.90
20432;DHT22;10375;49.136;10.366;2023-03-01T11:20:39;6.90;99.90
20432;DHT22;10375;49.136;10.366;2023-03-01T11:23:12;7.10;99.90
20432;DHT22;10375;49.136;10.366;2023-03-01T11:25:51;7.40;99.90
20432;DHT22;10375;49.136;10.366;2023-03-01T11:28:22;7.50;99.80
20432;DHT22;10375;49.136;10.366;2023-03-01T11:30:55;7.50;99.90
20432;DHT22;10375;49.136;10.366;2023-03-01T11:36:54;7.70;99.80
20432;DHT22;10375;49.136;10.366;2023-03-01T11:40:33;7.50;99.90
20432;DHT22;10375;49.136;10.366;2023-03-01T11:45:55;7.30;99.20
20432;DHT22;10375;49.136;10.366;2023-03-01T11:54:21;6.90;99.90
20432;DHT22;10375;49.136;10.366;2023-03-01T11:56:55;6.80;99.90
20432;DHT22;10375;49.136;10.366;2023-03-01T12:05:20;7.60;98.90
20432;DHT22;10375;49.136;10.366;2023-03-01T12:07:59;7.70;97.80
20432;DHT22;10375;49.136;10.366;2023-03-01T12:10:47;7.60;99.30
20432;DHT22;10375;49.136;10.366;2023-03-01T12:13:27;7.30;99.00
20432;DHT22;10375;49.136;10.366;2023-03-01T12:36:04;8.30;98.40
20432;DHT22;10375;49.136;10.366;2023-03-01T12:44:10;8.60;97.00
20432;DHT22;10375;49.136;10.366;2023-03-01T12:49:28;8.50;97.40
20432;DHT22;10375;49.136;10.366;2023-03-01T12:52:07;8.50;96.80
20432;DHT22;10375;49.136;10.366;2023-03-01T12:54:37;8.60;97.10
20432;DHT22;10375;49.136;10.366;2023-03-01T12:57:15;8.80;97.30
20432;DHT22;10375;49.136;10.366;2023-03-01T13:02:49;8.80;97.30
20432;DHT22;10375;49.136;10.366;2023-03-01T13:10:45;9.10;96.30
20432;DHT22;10375;49.136;10.366;2023-03-01T13:13:26;8.90;96.30
20432;DHT22;10375;49.136;10.366;2023-03-01T13:15:54;8.70;96.30
20432;DHT22;10375;49.136;10.366;2023-03-01T13:20:54;8.70;97.60
20432;DHT22;10375;49.136;10.366;2023-03-01T13:33:58;8.80;96.40
20432;DHT22;10375;49.136;10.366;2023-03-01T13:38:59;8.60;97.10
20432;DHT22;10375;49.136;10.366;2023-03-01T13:46:59;9.00;95.50
20432;DHT22;10375;49.136;10.366;2023-03-01T13:54:48;8.80;96.90
20432;DHT22;10375;49.136;10.366;2023-03-01T13:57:22;8.70;95.30
20432;DHT22;10375;49.136;10.366;2023-03-01T13:59:51;8.80;95.20
20432;DHT22;10375;49.136;10.366;2023-03-01T14:02:18;8.70;94.80
20432;DHT22;10375;49.136;10.366;2023-03-01T14:04:56;8.70;95.20
20432;DHT22;10375;49.136;10.366;2023-03-01T14:07:24;8.60;94.90
20432;DHT22;10375;49.136;10.366;2023-03-01T14:09:55;8.70;95.20
20432;DHT22;10375;49.136;10.366;2023-03-01T14:17:49;8.90;94.60
20432;DHT22;10375;49.136;10.366;2023-03-01T14:20:19;8.90;94.80
20432;DHT22;10375;49.136;10.366;2023-03-01T14:22:48;8.80;94.60
20432;DHT22;10375;49.136;10.366;2023-03-01T14:25:22;8.70;95.10
20432;DHT22;10375;49.136;10.366;2023-03-01T14:28:03;8.50;94.90
20432;DHT22;10375;49.136;10.366;2023-03-01T14:30:37;8.60;95.50
20432;DHT22;10375;49.136;10.366;2023-03-01T14:33:38;8.50;94.90
20432;DHT22;10375;49.136;10.366;2023-03-01T14:36:10;8.50;94.40
20432;DHT22;10375;49.136;10.366;2023-03-01T14:38:43;8.40;94.70
20432;DHT22;10375;49.136;10.366;2023-03-01T14:41:20;8.40;95.10
20432;DHT22;10375;49.136;10.366;2023-03-01T14:46:21;8.30;95.60
20432;DHT22;10375;49.136;10.366;2023-03-01T14:48:51;8.40;95.90
20432;DHT22;10375;49.136;10.366;2023-03-01T14:51:18;8.50;96.40
20432;DHT22;10375;49.136;10.366;2023-03-01T14:53:45;8.30;95.20
20432;DHT22;10375;49.136;10.366;2023-03-01T14:56:19;8.30;95.10
20432;DHT22;10375;49.136;10.366;2023-03-01T14:58:51;8.20;95.50
20432;DHT22;10375;49.136;10.366;2023-03-01T15:01:18;8.10;95.60
20432;DHT22;10375;49.136;10.366;2023-03-01T15:03:50;8.00;96.00
20432;DHT22;10375;49.136;10.366;2023-03-01T15:06:20;8.10;95.90
20432;DHT22;10375;49.136;10.366;2023-03-01T15:08:51;7.90;96.20
20432;DHT22;10375;49.136;10.366;2023-03-01T15:11:29;7.90;96.40
20432;DHT22;10375;49.136;10.366;2023-03-01T15:13:56;7.80;95.90
20432;DHT22;10375;49.136;10.366;2023-03-01T15:16:32;7.90;96.90
20432;DHT22;10375;49.136;10.366;2023-03-01T15:19:02;7.90;96.50
20432;DHT22;10375;49.136;10.366;2023-03-01T15:21:38;7.90;96.50
20432;DHT22;10375;49.136;10.366;2023-03-01T15:26:44;7.80;96.40
20432;DHT22;10375;49.136;10.366;2023-03-01T15:29:22;7.70;96.70
20432;DHT22;10375;49.136;10.366;2023-03-01T15:32:01;7.70;96.80
20432;DHT22;10375;49.136;10.366;2023-03-01T15:34:36;7.60;96.80
20432;DHT22;10375;49.136;10.366;2023-03-01T15:37:06;7.60;97.10
20432;DHT22;10375;49.136;10.366;2023-03-01T15:39:55;7.60;97.60
20432;DHT22;10375;49.136;10.366;2023-03-01T15:45:31;7.70;97.80
20432;DHT22;10375;49.136;10.366;2023-03-01T15:48:13;7.60;98.40
20432;DHT22;10375;49.136;10.366;2023-03-01T15:50:41;7.60;97.90
20432;DHT22;10375;49.136;10.366;2023-03-01T15:53:14;7.50;97.90
20432;DHT22;10375;49.136;10.366;2023-03-01T15:55:41;7.40;98.10
20432;DHT22;10375;49.136;10.366;2023-03-01T15:58:23;7.40;98.40
20432;DHT22;10375;49.136;10.366;2023-03-01T16:00:51;7.30;98.40
20432;DHT22;10375;49.136;10.366;2023-03-01T16:03:28;7.20;98.60
20432;DHT22;10375;49.136;10.366;2023-03-01T16:05:55;7.20;99.10
20432;DHT22;10375;49.136;10.366;2023-03-01T16:08:22;7.20;98.90
20432;DHT22;10375;49.136;10.366;2023-03-01T16:10:50;7.10;99.40
20432;DHT22;10375;49.136;10.366;2023-03-01T16:13:18;7.10;99.60
20432;DHT22;10375;49.136;10.366;2023-03-01T16:15:46;7.00;99.40
20432;DHT22;10375;49.136;10.366;2023-03-01T16:18:13;6.90;99.60
20432;DHT22;10375;49.136;10.366;2023-03-01T16:20:40;6.80;99.80
20432;DHT22;10375;49.136;10.366;2023-03-01T16:23:09;6.80;99.90
20432;DHT22;10375;49.136;10.366;2023-03-01T16:25:37;6.70;99.90
20432;DHT22;10375;49.136;10.366;2023-03-01T16:28:05;6.60;99.90
20432;DHT22;10375;49.136;10.366;2023-03-01T16:30:37;6.50;99.90
20432;DHT22;10375;49.136;10.366;2023-03-01T16:33:04;6.40;99.90
20432;DHT22;10375;49.136;10.366;2023-03-01T16:35:54;6.30;99.90
20432;DHT22;10375;49.136;10.366;2023-03-01T16:38:21;6.20;99.90
20432;DHT22;10375;49.136;10.366;2023-03-01T16:40:50;6.10;99.90
20432;DHT22;10375;49.136;10.366;2023-03-01T16:43:17;6.00;99.90
20432;DHT22;10375;49.136;10.366;2023-03-01T16:45:44;5.90;99.90
20432;DHT22;10375;49.136;10.366;2023-03-01T16:48:13;5.80;99.90
20432;DHT22;10375;49.136;10.366;2023-03-01T16:50:40;5.70;99.90
20432;DHT22;10375;49.136;10.366;2023-03-01T16:53:07;5.70;99.90
20432;DHT22;10375;49.136;10.366;2023-03-01T16:55:34;5.60;99.90
20432;DHT22;10375;49.136;10.366;2023-03-01T16:58:01;5.60;99.90
20432;DHT22;10375;49.136;10.366;2023-03-01T17:00:29;5.50;99.90
20432;DHT22;10375;49.136;10.366;2023-03-01T17:02:57;5.40;99.90
20432;DHT22;10375;49.136;10.366;2023-03-01T17:05:24;5.40;99.90
20432;DHT22;10375;49.136;10.366;2023-03-01T17:07:52;5.30;99.90
20432;DHT22;10375;49.136;10.366;2023-03-01T17:10:22;5.20;99.90
20432;DHT22;10375;49.136;10.366;2023-03-01T17:12:49;5.10;99.90
20432;DHT22;10375;49.136;10.366;2023-03-01T17:15:16;5.10;99.90
20432;DHT22;10375;49.136;10.366;2023-03-01T17:17:44;5.00;99.90
20432;DHT22;10375;49.136;10.366;2023-03-01T17:20:11;4.90;99.90
20432;DHT22;10375;49.136;10.366;2023-03-01T17:22:38;4.80;99.90
20432;DHT22;10375;49.136;10.366;2023-03-01T17:25:07;4.70;99.90
20432;DHT22;10375;49.136;10.366;2023-03-01T17:27:37;4.70;99.90
20432;DHT22;10375;49.136;10.366;2023-03-01T17:30:05;4.70;99.90
20432;DHT22;10375;49.136;10.366;2023-03-01T17:32:33;4.60;99.90
20432;DHT22;10375;49.136;10.366;2023-03-01T17:35:00;4.70;99.90
20432;DHT22;10375;49.136;10.366;2023-03-01T17:37:27;4.60;99.90
20432;DHT22;10375;49.136;10.366;2023-03-01T17:39:54;4.50;99.90
20432;DHT22;10375;49.136;10.366;2023-03-01T17:42:21;4.50;99.90
20432;DHT22;10375;49.136;10.366;2023-03-01T17:44:48;4.40;99.90
20432;DHT22;10375;49.136;10.366;2023-03-01T17:47:15;4.30;99.90
20432;DHT22;10375;49.136;10.366;2023-03-01T17:49:42;4.30;99.90
20432;DHT22;10375;49.136;10.366;2023-03-01T17:52:09;4.30;99.90